Terminal Aerodrome Forecast
Issued by NWS Cleveland, OH

Home | Current Version | Previous Version | Graphics & Text | Print | Product List | Glossary On
Versions: 1 2 3 4 5 6 7 8 9 10 11 12 13 14 15 16 17 18 19 20 21 22 23 24 25 26 27 28
000
FTUS41 KCLE 060500
TAFERI
TAF
KERI 060538Z 0606/0706 34005KT 2SM -SHRA BR SCT002 BKN080
      TEMPO 0606/0610 BKN003
     FM061100 08005KT 2SM BR BKN005
     FM061400 04008KT 6SM BR SCT008 OVC012
     FM061800 03008KT P6SM SCT020 BKN250=

USA.gov is the U.S. government's official web portal to all federal, state and local government web resources and services.